createdAt,value
2023-04-14T00:01:44.261Z,1
2023-04-14T00:02:44.346Z,2
2023-04-14T00:03:44.424Z,1
2023-04-14T00:04:44.442Z,2
2023-04-14T00:05:44.371Z,2
2023-04-14T00:06:44.459Z,1
2023-04-14T00:07:44.326Z,2
2023-04-14T00:08:44.377Z,1
2023-04-14T00:09:44.271Z,2
2023-04-14T00:10:44.254Z,1
2023-04-14T00:11:44.249Z,2
2023-04-14T00:12:44.278Z,2
2023-04-14T00:13:44.263Z,2
2023-04-14T00:14:44.257Z,2
2023-04-14T00:15:44.256Z,2
2023-04-14T00:16:44.294Z,2
2023-04-14T00:17:44.317Z,2
2023-04-14T00:18:44.269Z,2
2023-04-14T00:19:44.246Z,2
2023-04-14T00:20:44.321Z,2
2023-04-14T00:21:44.262Z,2
2023-04-14T00:22:44.260Z,2
2023-04-14T00:23:44.246Z,2
2023-04-14T00:24:44.248Z,2
2023-04-14T00:25:44.276Z,2
2023-04-14T00:26:44.271Z,1
2023-04-14T00:27:44.272Z,2
2023-04-14T00:28:44.261Z,2
2023-04-14T00:29:44.266Z,1
2023-04-14T00:30:44.338Z,2
2023-04-14T00:31:44.454Z,2
2023-04-14T00:32:44.288Z,2
2023-04-14T00:33:44.286Z,2
2023-04-14T00:34:44.245Z,1
2023-04-14T00:35:44.239Z,2
2023-04-14T00:36:44.258Z,2
2023-04-14T00:37:44.258Z,1
2023-04-14T00:38:44.266Z,2
2023-04-14T00:39:44.264Z,2
2023-04-14T00:40:44.291Z,1
2023-04-14T00:41:44.262Z,2
2023-04-14T00:42:44.280Z,2
2023-04-14T00:43:44.259Z,2
2023-04-14T00:44:44.254Z,1
2023-04-14T00:45:44.248Z,2
2023-04-14T00:46:44.406Z,2
2023-04-14T00:47:44.326Z,1
2023-04-14T00:49:44.256Z,2
2023-04-14T00:50:44.294Z,2
2023-04-14T00:51:44.279Z,1
2023-04-14T00:52:44.242Z,1
2023-04-14T00:53:44.265Z,2
2023-04-14T00:54:44.279Z,2
2023-04-14T00:55:44.237Z,2
2023-04-14T00:56:44.253Z,2
2023-04-14T00:57:44.309Z,2
2023-04-14T00:58:44.242Z,1
2023-04-14T01:01:44.329Z,2
2023-04-14T01:02:44.587Z,1
2023-04-14T01:03:44.448Z,2
2023-04-14T01:04:53.480Z,1
2023-04-14T01:05:44.258Z,1
2023-04-14T01:06:44.259Z,2
2023-04-14T01:07:44.265Z,2
2023-04-14T01:08:44.252Z,1
2023-04-14T01:09:44.257Z,2
2023-04-14T01:10:44.275Z,2
2023-04-14T01:11:44.252Z,1
2023-04-14T01:12:44.258Z,2
2023-04-14T01:13:44.272Z,1
2023-04-14T01:14:44.233Z,2
2023-04-14T01:15:44.293Z,2
2023-04-14T01:16:44.253Z,2
2023-04-14T01:17:44.305Z,1
2023-04-14T01:18:44.251Z,2
2023-04-14T01:19:44.276Z,1
2023-04-14T01:20:44.263Z,2
2023-04-14T01:21:44.292Z,2
2023-04-14T01:22:44.265Z,1
2023-04-14T01:23:44.254Z,2
2023-04-14T01:24:44.264Z,2
2023-04-14T01:25:44.241Z,1
2023-04-14T01:26:44.291Z,2
2023-04-14T01:27:44.268Z,2
2023-04-14T01:28:44.252Z,1
2023-04-14T01:29:44.264Z,2
2023-04-14T01:30:44.249Z,2
2023-04-14T01:31:44.309Z,2
2023-04-14T01:32:44.326Z,2
2023-04-14T01:33:44.259Z,1
2023-04-14T01:34:44.260Z,2
2023-04-14T01:35:44.252Z,1
2023-04-14T01:36:44.299Z,1
2023-04-14T01:37:44.268Z,2
2023-04-14T01:38:44.247Z,1
2023-04-14T01:39:44.262Z,2
2023-04-14T01:40:44.262Z,1
2023-04-14T01:41:44.250Z,1
2023-04-14T01:42:44.232Z,2
2023-04-14T01:43:44.241Z,1
2023-04-14T01:44:44.279Z,2
2023-04-14T01:45:44.280Z,2
2023-04-14T01:46:44.253Z,2
2023-04-14T01:47:44.290Z,1
2023-04-14T01:48:44.246Z,2
2023-04-14T01:49:44.260Z,1
2023-04-14T01:50:44.250Z,2
2023-04-14T01:51:44.260Z,1
2023-04-14T01:52:44.246Z,1
2023-04-14T01:53:44.242Z,2
2023-04-14T01:54:44.254Z,2
2023-04-14T01:55:44.345Z,1
2023-04-14T01:56:44.241Z,2
2023-04-14T01:57:44.307Z,1
2023-04-14T01:58:44.305Z,1
2023-04-14T01:59:44.250Z,1
2023-04-14T02:00:44.265Z,1
2023-04-14T02:01:44.264Z,1
2023-04-14T02:02:44.522Z,2
2023-04-14T02:03:44.327Z,1
2023-04-14T02:04:44.251Z,1
2023-04-14T02:05:44.264Z,2
2023-04-14T02:06:44.258Z,2
2023-04-14T02:07:44.241Z,2
2023-04-14T02:08:44.285Z,1
2023-04-14T02:09:44.259Z,1
2023-04-14T02:10:44.268Z,1
2023-04-14T02:11:44.243Z,2
2023-04-14T02:12:44.239Z,2
2023-04-14T02:13:44.264Z,1
2023-04-14T02:14:44.280Z,2
2023-04-14T02:15:44.231Z,2
2023-04-14T02:16:44.291Z,2
2023-04-14T02:17:44.335Z,2
2023-04-14T02:18:44.258Z,2
2023-04-14T02:19:44.253Z,2
2023-04-14T02:20:44.259Z,1
2023-04-14T02:21:44.243Z,2
2023-04-14T02:22:44.236Z,1
2023-04-14T02:23:44.256Z,1
2023-04-14T02:24:44.247Z,2
2023-04-14T02:26:44.253Z,1
2023-04-14T02:27:44.257Z,1
2023-04-14T02:28:44.245Z,1
2023-04-14T02:29:44.234Z,2
2023-04-14T02:30:44.256Z,1
2023-04-14T02:31:44.241Z,1
2023-04-14T02:32:44.265Z,1
2023-04-14T02:33:44.246Z,2
2023-04-14T02:34:44.261Z,2
2023-04-14T02:35:44.248Z,2
2023-04-14T02:36:44.242Z,2
2023-04-14T02:37:44.236Z,2
2023-04-14T02:38:44.237Z,2
2023-04-14T02:39:44.251Z,2
2023-04-14T02:41:44.237Z,2
2023-04-14T02:42:44.253Z,2
2023-04-14T02:43:44.252Z,2
2023-04-14T02:44:44.248Z,2
2023-04-14T02:45:44.342Z,1
2023-04-14T02:46:44.238Z,2
2023-04-14T02:47:44.261Z,2
2023-04-14T02:48:44.227Z,2
2023-04-14T02:49:44.284Z,2
2023-04-14T02:51:44.248Z,1
2023-04-14T02:52:44.246Z,1
2023-04-14T02:53:44.257Z,2
2023-04-14T02:54:44.256Z,1
2023-04-14T02:55:44.226Z,2
2023-04-14T02:56:44.242Z,2
2023-04-14T02:57:44.257Z,2
2023-04-14T02:58:44.229Z,2
2023-04-14T02:59:44.249Z,2
2023-04-14T03:00:44.247Z,2
2023-04-14T03:01:44.366Z,2
2023-04-14T03:02:44.287Z,2
2023-04-14T03:04:44.342Z,2
2023-04-14T03:05:44.247Z,2
2023-04-14T03:06:44.241Z,2
2023-04-14T03:07:44.247Z,2
2023-04-14T03:08:44.294Z,2
2023-04-14T03:09:44.249Z,2
2023-04-14T03:10:44.230Z,2
2023-04-14T03:11:44.253Z,2
2023-04-14T03:13:44.241Z,2
2023-04-14T03:14:44.242Z,2
2023-04-14T03:15:44.269Z,1
2023-04-14T03:16:44.258Z,2
2023-04-14T03:17:44.279Z,2
2023-04-14T03:18:44.265Z,2
2023-04-14T03:19:44.264Z,2
2023-04-14T03:20:44.292Z,2
2023-04-14T03:21:44.244Z,2
2023-04-14T03:22:44.239Z,1
2023-04-14T03:23:44.249Z,1
2023-04-14T03:24:44.232Z,2
2023-04-14T03:25:44.235Z,1
2023-04-14T03:26:44.256Z,2
2023-04-14T03:27:44.237Z,2
2023-04-14T03:28:44.219Z,2
2023-04-14T03:29:44.240Z,1
2023-04-14T03:30:44.236Z,2
2023-04-14T03:31:44.326Z,1
2023-04-14T03:32:44.248Z,2
2023-04-14T03:33:44.224Z,2
2023-04-14T03:34:44.238Z,2
2023-04-14T03:35:44.251Z,2
2023-04-14T03:36:44.265Z,2
2023-04-14T03:37:44.229Z,2
2023-04-14T03:38:44.225Z,2
2023-04-14T03:39:44.272Z,1
2023-04-14T03:40:44.301Z,1
2023-04-14T03:41:44.247Z,2
2023-04-14T03:42:44.237Z,2
2023-04-14T03:43:44.242Z,2
2023-04-14T03:44:44.246Z,2
2023-04-14T03:45:44.239Z,2
2023-04-14T03:46:44.259Z,2
2023-04-14T03:47:44.350Z,2
2023-04-14T03:48:44.274Z,2
2023-04-14T03:49:44.245Z,2
2023-04-14T03:50:44.244Z,2
2023-04-14T03:51:44.229Z,2
2023-04-14T03:52:44.270Z,2
2023-04-14T03:53:44.247Z,2
2023-04-14T03:54:44.259Z,2
2023-04-14T03:55:44.228Z,2
2023-04-14T03:56:44.231Z,2
2023-04-14T03:57:44.259Z,2
2023-04-14T03:58:44.230Z,2
2023-04-14T03:59:44.247Z,2
2023-04-14T04:00:44.231Z,2
2023-04-14T04:01:44.308Z,2
2023-04-14T04:02:44.288Z,2
2023-04-14T04:03:44.524Z,2
2023-04-14T04:04:44.316Z,2
2023-04-14T04:05:44.247Z,2
2023-04-14T04:06:44.255Z,1
2023-04-14T04:07:44.212Z,1
2023-04-14T04:08:44.240Z,2
2023-04-14T04:09:44.234Z,2
2023-04-14T04:10:44.229Z,1
2023-04-14T04:11:44.236Z,1
2023-04-14T04:13:44.237Z,2
2023-04-14T04:14:44.257Z,2
2023-04-14T04:15:44.227Z,2
2023-04-14T04:16:44.246Z,2
2023-04-14T04:17:44.242Z,2
2023-04-14T04:18:44.231Z,2
2023-04-14T04:19:44.237Z,2
2023-04-14T04:20:44.242Z,2
2023-04-14T04:21:44.247Z,2
2023-04-14T04:22:44.254Z,2
2023-04-14T04:23:44.231Z,2
2023-04-14T04:24:44.217Z,2
2023-04-14T04:25:44.230Z,2
2023-04-14T04:26:44.236Z,2
2023-04-14T04:27:44.245Z,2
2023-04-14T04:28:44.235Z,2
2023-04-14T04:29:44.234Z,2
2023-04-14T04:30:44.230Z,2
2023-04-14T04:31:44.291Z,2
2023-04-14T04:32:44.270Z,2
2023-04-14T04:33:44.239Z,2
2023-04-14T04:34:44.237Z,2
2023-04-14T04:35:44.239Z,3
2023-04-14T04:36:44.264Z,2
2023-04-14T04:37:44.236Z,2
2023-04-14T04:38:44.244Z,2
2023-04-14T04:39:44.234Z,2
2023-04-14T04:40:44.239Z,2
2023-04-14T04:41:44.241Z,2
2023-04-14T04:42:44.221Z,2
2023-04-14T04:44:44.297Z,2
2023-04-14T04:45:44.292Z,3
2023-04-14T04:46:44.314Z,2
2023-04-14T04:47:44.246Z,2
2023-04-14T04:48:44.229Z,2
2023-04-14T04:49:44.242Z,2
2023-04-14T04:50:44.235Z,2
2023-04-14T04:51:44.238Z,2
2023-04-14T04:52:44.252Z,3
2023-04-14T04:53:44.220Z,2
2023-04-14T04:54:44.228Z,2
2023-04-14T04:55:44.239Z,2
2023-04-14T04:56:44.230Z,2
2023-04-14T04:57:44.236Z,3
2023-04-14T04:58:44.256Z,2
2023-04-14T04:59:44.234Z,2
2023-04-14T05:00:44.229Z,3
2023-04-14T05:01:44.331Z,2
2023-04-14T05:02:44.313Z,2
2023-04-14T05:03:44.259Z,2
2023-04-14T05:04:44.290Z,3
2023-04-14T05:05:44.234Z,3
2023-04-14T05:06:44.245Z,3
2023-04-14T05:07:44.226Z,3
2023-04-14T05:08:44.254Z,4
2023-04-14T05:09:44.230Z,6
2023-04-14T05:10:44.239Z,4
2023-04-14T05:11:44.220Z,3
2023-04-14T05:12:44.241Z,3
2023-04-14T05:13:44.231Z,3
2023-04-14T05:14:44.229Z,3
2023-04-14T05:15:44.281Z,3
2023-04-14T05:16:44.235Z,3
2023-04-14T05:17:44.264Z,2
2023-04-14T05:19:44.233Z,3
2023-04-14T05:20:44.251Z,2
2023-04-14T05:21:44.262Z,3
2023-04-14T05:22:44.248Z,2
2023-04-14T05:23:44.253Z,2
2023-04-14T05:24:44.236Z,2
2023-04-14T05:25:45.865Z,3
2023-04-14T05:26:58.338Z,3
2023-04-14T05:27:44.226Z,3
2023-04-14T05:28:44.263Z,2
2023-04-14T05:29:44.243Z,2
2023-04-14T05:30:44.223Z,3
2023-04-14T05:31:44.253Z,3
2023-04-14T05:32:44.245Z,2
2023-04-14T05:33:44.236Z,2
2023-04-14T05:34:44.260Z,2
2023-04-14T05:35:44.242Z,3
2023-04-14T05:36:44.245Z,2
2023-04-14T05:37:44.236Z,2
2023-04-14T05:38:44.246Z,2
2023-04-14T05:39:44.238Z,3
2023-04-14T05:40:44.239Z,3
2023-04-14T05:41:44.229Z,3
2023-04-14T05:42:44.238Z,2
2023-04-14T05:43:44.217Z,3
2023-04-14T05:44:44.225Z,3
2023-04-14T05:45:44.230Z,11
2023-04-14T05:46:44.268Z,3
2023-04-14T05:47:44.716Z,3
2023-04-14T05:48:44.222Z,3
2023-04-14T05:49:44.232Z,3
2023-04-14T05:50:44.250Z,2
2023-04-14T05:51:44.249Z,3
2023-04-14T05:52:44.241Z,3
2023-04-14T05:53:44.253Z,3
2023-04-14T05:54:44.229Z,2
2023-04-14T05:55:44.240Z,3
2023-04-14T05:56:44.232Z,2
2023-04-14T05:57:44.225Z,3
2023-04-14T05:58:44.229Z,2
2023-04-14T05:59:44.233Z,3
2023-04-14T06:00:44.226Z,3
2023-04-14T06:01:44.368Z,3
2023-04-14T06:02:44.391Z,3
2023-04-14T06:03:44.558Z,3
2023-04-14T06:04:44.317Z,3
2023-04-14T06:05:44.244Z,3
2023-04-14T06:06:44.253Z,3
2023-04-14T06:07:44.244Z,3
2023-04-14T06:08:44.248Z,3
2023-04-14T06:09:44.224Z,3
2023-04-14T06:10:44.225Z,3
2023-04-14T06:11:44.236Z,3
2023-04-14T06:12:44.236Z,2
2023-04-14T06:13:56.473Z,3
2023-04-14T06:14:44.226Z,3
2023-04-14T06:15:44.246Z,2
2023-04-14T06:16:44.266Z,3
2023-04-14T06:17:44.265Z,3
2023-04-14T06:18:44.230Z,3
2023-04-14T06:19:44.230Z,3
2023-04-14T06:20:44.237Z,3
2023-04-14T06:21:44.226Z,3
2023-04-14T06:22:44.227Z,3
2023-04-14T06:23:44.220Z,3
2023-04-14T06:24:44.236Z,3
2023-04-14T06:25:44.227Z,3
2023-04-14T06:26:44.226Z,3
2023-04-14T06:27:44.268Z,3
2023-04-14T06:28:44.488Z,3
2023-04-14T06:29:44.227Z,2
2023-04-14T06:31:44.267Z,3
2023-04-14T06:32:44.291Z,2
2023-04-14T06:33:44.244Z,4
2023-04-14T06:34:44.235Z,3
2023-04-14T06:36:44.230Z,3
2023-04-14T06:37:44.234Z,3
2023-04-14T06:38:44.230Z,2
2023-04-14T06:39:44.209Z,3
2023-04-14T06:40:44.218Z,3
2023-04-14T06:41:44.216Z,2
2023-04-14T06:42:44.240Z,2
2023-04-14T06:43:44.236Z,3
2023-04-14T06:44:44.248Z,3
2023-04-14T06:45:44.276Z,3
2023-04-14T06:46:44.227Z,2
2023-04-14T06:47:44.298Z,2
2023-04-14T06:49:44.237Z,2
2023-04-14T06:50:44.668Z,3
2023-04-14T06:51:44.222Z,3
2023-04-14T06:52:44.226Z,2
2023-04-14T06:53:44.237Z,2
2023-04-14T06:54:44.229Z,2
2023-04-14T06:55:44.233Z,2
2023-04-14T06:56:44.245Z,2
2023-04-14T06:57:44.266Z,2
2023-04-14T06:58:44.355Z,3
2023-04-14T06:59:44.221Z,2
2023-04-14T07:00:44.310Z,2
2023-04-14T07:01:44.355Z,2
2023-04-14T07:02:44.327Z,2
2023-04-14T07:03:44.243Z,2
2023-04-14T07:04:44.346Z,2
2023-04-14T07:05:44.250Z,3
2023-04-14T07:06:44.253Z,4
2023-04-14T07:07:44.228Z,3
2023-04-14T07:08:44.261Z,3
2023-04-14T07:09:44.301Z,2
2023-04-14T07:10:44.247Z,2
2023-04-14T07:11:44.284Z,3
2023-04-14T07:12:44.292Z,2
2023-04-14T07:13:44.361Z,2
2023-04-14T07:14:44.282Z,2
2023-04-14T07:16:44.309Z,2
2023-04-14T07:17:44.309Z,2
2023-04-14T07:19:44.347Z,2
2023-04-14T07:20:44.365Z,2
2023-04-14T07:21:44.213Z,2
2023-04-14T07:22:44.243Z,2
2023-04-14T07:23:44.233Z,5
2023-04-14T07:24:44.213Z,4
2023-04-14T07:25:44.222Z,3
2023-04-14T07:26:44.245Z,2
2023-04-14T07:27:52.978Z,2
2023-04-14T07:28:44.227Z,2
2023-04-14T07:29:44.252Z,2
2023-04-14T07:31:44.242Z,2
2023-04-14T07:32:44.240Z,2
2023-04-14T07:33:44.225Z,2
2023-04-14T07:34:44.445Z,2
2023-04-14T07:35:51.183Z,2
2023-04-14T07:36:44.222Z,2
2023-04-14T07:37:44.238Z,2
2023-04-14T07:38:44.233Z,2
2023-04-14T07:39:44.227Z,2
2023-04-14T07:40:44.209Z,2
2023-04-14T07:41:44.231Z,2
2023-04-14T07:42:44.223Z,2
2023-04-14T07:43:44.219Z,2
2023-04-14T07:44:44.224Z,2
2023-04-14T07:45:44.228Z,2
2023-04-14T07:46:44.382Z,2
2023-04-14T07:47:44.284Z,2
2023-04-14T07:48:44.238Z,2
2023-04-14T07:49:44.234Z,2
2023-04-14T07:50:44.211Z,2
2023-04-14T07:51:44.232Z,2
2023-04-14T07:52:44.231Z,2
2023-04-14T07:53:44.265Z,2
2023-04-14T07:54:44.289Z,2
2023-04-14T07:55:44.233Z,2
2023-04-14T07:56:44.222Z,2
2023-04-14T07:57:44.226Z,2
2023-04-14T07:58:44.239Z,2
2023-04-14T07:59:44.269Z,2
2023-04-14T08:00:44.229Z,2
2023-04-14T08:01:44.515Z,2
2023-04-14T08:02:44.396Z,2
2023-04-14T08:03:45.568Z,3
2023-04-14T08:04:44.242Z,2
2023-04-14T08:05:44.293Z,2
2023-04-14T08:06:44.232Z,2
2023-04-14T08:07:44.235Z,2
2023-04-14T08:08:44.219Z,2
2023-04-14T08:09:44.234Z,2
2023-04-14T08:10:44.234Z,2
2023-04-14T08:11:44.228Z,2
2023-04-14T08:13:44.244Z,2
2023-04-14T08:14:44.252Z,2
2023-04-14T08:15:44.264Z,2
2023-04-14T08:16:44.353Z,2
2023-04-14T08:17:44.287Z,2
2023-04-14T08:18:44.270Z,2
2023-04-14T08:19:44.230Z,2
2023-04-14T08:20:44.243Z,2
2023-04-14T08:21:44.241Z,1
2023-04-14T08:22:44.252Z,2
2023-04-14T08:23:44.222Z,2
2023-04-14T08:24:44.223Z,2
2023-04-14T08:25:44.240Z,2
2023-04-14T08:26:44.220Z,2
2023-04-14T08:27:44.258Z,2
2023-04-14T08:28:44.229Z,2
2023-04-14T08:29:44.220Z,2
2023-04-14T08:30:44.215Z,2
2023-04-14T08:31:44.272Z,2
2023-04-14T08:32:44.281Z,2
2023-04-14T08:33:44.249Z,2
2023-04-14T08:35:38.677Z,2
2023-04-14T08:35:44.252Z,2
2023-04-14T08:36:44.237Z,2
2023-04-14T08:37:44.228Z,2
2023-04-14T08:39:44.307Z,2
2023-04-14T08:40:44.238Z,2
2023-04-14T08:41:44.265Z,2
2023-04-14T08:42:44.222Z,2
2023-04-14T08:43:44.229Z,2
2023-04-14T08:44:44.235Z,2
2023-04-14T08:45:44.263Z,2
2023-04-14T08:46:44.227Z,1
2023-04-14T08:47:44.295Z,1
2023-04-14T08:48:44.250Z,1
2023-04-14T08:49:44.237Z,2
2023-04-14T08:50:44.237Z,1
2023-04-14T08:51:44.220Z,2
2023-04-14T08:52:44.235Z,2
2023-04-14T08:53:44.225Z,2
2023-04-14T08:54:44.224Z,2
2023-04-14T08:55:44.247Z,2
2023-04-14T08:56:44.240Z,2
2023-04-14T08:57:44.292Z,2
2023-04-14T08:58:44.221Z,1
2023-04-14T08:59:44.236Z,2
2023-04-14T09:00:44.259Z,2
2023-04-14T09:01:44.407Z,2
2023-04-14T09:02:44.484Z,2
2023-04-14T09:03:44.396Z,2
2023-04-14T09:04:44.360Z,2
2023-04-14T09:05:44.221Z,2
2023-04-14T09:06:44.231Z,2
2023-04-14T09:07:44.243Z,2
2023-04-14T09:08:44.233Z,2
2023-04-14T09:09:44.234Z,1
2023-04-14T09:10:44.241Z,2
2023-04-14T09:11:44.273Z,2
2023-04-14T09:12:44.255Z,1
2023-04-14T09:13:44.239Z,1
2023-04-14T09:14:44.263Z,2
2023-04-14T09:15:44.236Z,2
2023-04-14T09:16:44.361Z,2
2023-04-14T09:17:44.298Z,2
2023-04-14T09:18:44.260Z,1
2023-04-14T09:20:38.878Z,2
2023-04-14T09:20:44.358Z,2
2023-04-14T09:21:51.796Z,2
2023-04-14T09:22:44.244Z,1
2023-04-14T09:23:44.276Z,1
2023-04-14T09:24:44.254Z,2
2023-04-14T09:25:44.248Z,2
2023-04-14T09:26:44.239Z,1
2023-04-14T09:27:44.261Z,1
2023-04-14T09:28:44.232Z,2
2023-04-14T09:29:44.226Z,2
2023-04-14T09:30:44.312Z,2
2023-04-14T09:31:44.311Z,1
2023-04-14T09:32:44.303Z,1
2023-04-14T09:33:44.290Z,2
2023-04-14T09:34:44.235Z,2
2023-04-14T09:35:44.233Z,1
2023-04-14T09:36:44.263Z,1
2023-04-14T09:37:44.316Z,1
2023-04-14T09:38:44.239Z,2
2023-04-14T09:39:44.371Z,2
2023-04-14T09:40:44.254Z,2
2023-04-14T09:41:44.253Z,1
2023-04-14T09:42:44.234Z,1
2023-04-14T09:43:44.253Z,1
2023-04-14T09:44:44.241Z,2
2023-04-14T09:45:44.284Z,2
2023-04-14T09:46:44.324Z,1
2023-04-14T09:47:44.300Z,1
2023-04-14T09:48:44.259Z,1
2023-04-14T09:49:44.246Z,1
2023-04-14T09:50:44.242Z,1
2023-04-14T09:51:44.247Z,1
2023-04-14T09:52:44.260Z,2
2023-04-14T09:53:45.694Z,2
2023-04-14T09:54:44.248Z,2
2023-04-14T09:55:44.272Z,3
2023-04-14T09:56:44.261Z,2
2023-04-14T09:57:44.255Z,2
2023-04-14T09:58:44.245Z,5
2023-04-14T09:59:44.241Z,2
2023-04-14T10:00:44.239Z,3
2023-04-14T10:01:44.324Z,3
2023-04-14T10:02:44.338Z,3
2023-04-14T10:03:44.285Z,2
2023-04-14T10:04:44.277Z,1
2023-04-14T10:05:44.245Z,11
2023-04-14T10:06:44.241Z,19
2023-04-14T10:07:44.268Z,5
2023-04-14T10:08:44.269Z,2
2023-04-14T10:09:44.274Z,2
2023-04-14T10:10:44.265Z,5
2023-04-14T10:11:44.248Z,6
2023-04-14T10:12:44.249Z,6
2023-04-14T10:13:44.235Z,5
2023-04-14T10:14:44.300Z,10
2023-04-14T10:15:44.326Z,12
2023-04-14T10:16:44.297Z,8
2023-04-14T10:17:44.297Z,2
2023-04-14T10:18:44.242Z,1
2023-04-14T10:19:44.269Z,1
2023-04-14T10:20:44.257Z,2
2023-04-14T10:21:44.240Z,2
2023-04-14T10:22:44.278Z,2
2023-04-14T10:23:44.255Z,2
2023-04-14T10:24:44.238Z,2
2023-04-14T10:25:44.242Z,1
2023-04-14T10:26:44.258Z,1
2023-04-14T10:27:44.267Z,1
2023-04-14T10:28:44.247Z,2
2023-04-14T10:29:44.245Z,2
2023-04-14T10:30:44.258Z,1
2023-04-14T10:31:44.278Z,1
2023-04-14T10:32:44.354Z,1
2023-04-14T10:33:44.290Z,2
2023-04-14T10:34:44.250Z,1
2023-04-14T10:35:44.242Z,2
2023-04-14T10:36:44.275Z,1
2023-04-14T10:37:44.241Z,1
2023-04-14T10:38:44.239Z,2
2023-04-14T10:39:44.271Z,2
2023-04-14T10:40:44.262Z,2
2023-04-14T10:41:44.276Z,2
2023-04-14T10:42:44.234Z,2
2023-04-14T10:43:44.307Z,1
2023-04-14T10:44:44.259Z,2
2023-04-14T10:45:44.542Z,2
2023-04-14T10:46:44.287Z,2
2023-04-14T10:47:44.261Z,2
2023-04-14T10:48:44.287Z,1
2023-04-14T10:49:44.268Z,1
2023-04-14T10:50:44.248Z,2
2023-04-14T10:51:44.257Z,1
2023-04-14T10:52:44.247Z,2
2023-04-14T10:53:44.261Z,1
2023-04-14T10:54:44.267Z,1
2023-04-14T10:55:51.704Z,1
2023-04-14T10:56:44.269Z,1
2023-04-14T10:57:44.263Z,1
2023-04-14T10:58:44.266Z,1
2023-04-14T10:59:44.270Z,1
2023-04-14T11:00:44.269Z,1
2023-04-14T11:01:44.321Z,1
2023-04-14T11:02:44.386Z,1
2023-04-14T11:03:44.722Z,2
2023-04-14T11:04:44.295Z,2
2023-04-14T11:05:44.267Z,1
2023-04-14T11:06:44.273Z,1
2023-04-14T11:07:44.266Z,1
2023-04-14T11:08:44.270Z,1
2023-04-14T11:09:44.264Z,1
2023-04-14T11:10:44.274Z,1
2023-04-14T11:11:44.278Z,1
2023-04-14T11:12:44.274Z,1
2023-04-14T11:13:44.265Z,1
2023-04-14T11:14:44.277Z,1
2023-04-14T11:15:44.282Z,1
2023-04-14T11:16:50.738Z,1
2023-04-14T11:17:44.348Z,1
2023-04-14T11:18:45.765Z,1
2023-04-14T11:19:44.336Z,1
2023-04-14T11:20:44.256Z,1
2023-04-14T11:21:44.278Z,1
2023-04-14T11:22:44.271Z,1
2023-04-14T11:23:44.284Z,1
2023-04-14T11:24:44.253Z,1
2023-04-14T11:25:44.255Z,1
2023-04-14T11:26:44.269Z,1
2023-04-14T11:27:44.275Z,1
2023-04-14T11:28:44.292Z,1
2023-04-14T11:29:44.257Z,1
2023-04-14T11:30:44.269Z,1
2023-04-14T11:31:44.290Z,1
2023-04-14T11:32:44.279Z,1
2023-04-14T11:33:44.279Z,1
2023-04-14T11:34:44.273Z,1
2023-04-14T11:35:44.264Z,1
2023-04-14T11:36:44.277Z,1
2023-04-14T11:37:44.312Z,1
2023-04-14T11:38:44.268Z,1
2023-04-14T11:39:44.295Z,1
2023-04-14T11:40:44.306Z,1
2023-04-14T11:41:44.273Z,1
2023-04-14T11:43:44.277Z,1
2023-04-14T11:44:44.287Z,1
2023-04-14T11:46:44.256Z,1
2023-04-14T11:48:44.266Z,1
2023-04-14T11:50:44.261Z,1
2023-04-14T11:51:44.287Z,1
2023-04-14T11:52:44.277Z,1
2023-04-14T11:53:44.297Z,1
2023-04-14T11:54:44.305Z,1
2023-04-14T11:55:44.292Z,1
2023-04-14T11:56:44.277Z,1
2023-04-14T11:57:44.292Z,1
2023-04-14T11:58:44.298Z,1
2023-04-14T11:59:44.288Z,1
2023-04-14T12:00:44.290Z,1
2023-04-14T12:01:44.375Z,1
2023-04-14T12:02:44.533Z,1
2023-04-14T12:03:44.440Z,1
2023-04-14T12:04:44.384Z,1
2023-04-14T12:05:44.306Z,1
2023-04-14T12:06:44.295Z,1
2023-04-14T12:07:44.260Z,1
2023-04-14T12:08:44.284Z,1
2023-04-14T12:09:44.285Z,1
2023-04-14T12:10:44.303Z,1
2023-04-14T12:11:44.354Z,1
2023-04-14T12:12:44.281Z,1
2023-04-14T12:13:44.326Z,1
2023-04-14T12:14:44.253Z,1
2023-04-14T12:15:44.314Z,1
2023-04-14T12:16:44.275Z,1
2023-04-14T12:17:44.303Z,1
2023-04-14T12:18:44.278Z,1
2023-04-14T12:19:44.357Z,1
2023-04-14T12:20:44.307Z,1
2023-04-14T12:21:44.302Z,1
2023-04-14T12:22:44.277Z,1
2023-04-14T12:23:44.279Z,1
2023-04-14T12:24:44.307Z,1
2023-04-14T12:25:44.295Z,1
2023-04-14T12:26:44.274Z,1
2023-04-14T12:27:44.288Z,1
2023-04-14T12:28:44.278Z,1
2023-04-14T12:29:44.323Z,1
2023-04-14T12:31:44.450Z,1
2023-04-14T12:32:44.362Z,1
2023-04-14T12:33:44.299Z,1
2023-04-14T12:34:44.292Z,1
2023-04-14T12:35:44.260Z,1
2023-04-14T12:36:50.287Z,1
2023-04-14T12:37:44.285Z,1
2023-04-14T12:38:44.278Z,1
2023-04-14T12:39:44.268Z,1
2023-04-14T12:40:44.274Z,1
2023-04-14T12:41:44.273Z,1
2023-04-14T12:42:44.288Z,1
2023-04-14T12:43:44.281Z,1
2023-04-14T12:44:44.279Z,1
2023-04-14T12:45:44.278Z,1
2023-04-14T12:46:44.318Z,1
2023-04-14T12:47:44.309Z,1
2023-04-14T12:48:44.315Z,1
2023-04-14T12:49:44.283Z,1
2023-04-14T12:50:44.277Z,1
2023-04-14T12:51:44.296Z,1
2023-04-14T12:52:44.278Z,1
2023-04-14T12:53:44.478Z,1
2023-04-14T12:54:44.260Z,1
2023-04-14T12:55:44.268Z,1
2023-04-14T12:56:44.278Z,1
2023-04-14T12:57:44.268Z,1
2023-04-14T12:58:44.262Z,1
2023-04-14T12:59:44.306Z,1
2023-04-14T13:00:44.299Z,1
2023-04-14T13:01:44.452Z,1
2023-04-14T13:02:45.634Z,1
2023-04-14T13:03:44.502Z,1
2023-04-14T13:04:44.284Z,1
2023-04-14T13:05:44.271Z,1
2023-04-14T13:06:44.286Z,1
2023-04-14T13:07:44.267Z,1
2023-04-14T13:08:44.281Z,1
2023-04-14T13:09:44.283Z,1
2023-04-14T13:10:44.300Z,1
2023-04-14T13:11:44.336Z,1
2023-04-14T13:12:44.299Z,1
2023-04-14T13:13:44.354Z,1
2023-04-14T13:14:44.274Z,1
2023-04-14T13:16:12.434Z,1
2023-04-14T13:16:44.330Z,1
2023-04-14T13:17:44.329Z,1
2023-04-14T13:18:44.285Z,1
2023-04-14T13:19:44.277Z,1
2023-04-14T13:20:44.294Z,1
2023-04-14T13:21:44.296Z,1
2023-04-14T13:22:44.626Z,1
2023-04-14T13:24:50.413Z,1
2023-04-14T13:25:44.289Z,1
2023-04-14T13:26:44.282Z,1
2023-04-14T13:27:44.377Z,1
2023-04-14T13:28:44.313Z,1
2023-04-14T13:29:44.289Z,1
2023-04-14T13:30:44.302Z,1
2023-04-14T13:31:44.375Z,1
2023-04-14T13:32:44.324Z,1
2023-04-14T13:33:44.305Z,1
2023-04-14T13:34:44.281Z,1
2023-04-14T13:35:44.284Z,1
2023-04-14T13:36:44.318Z,1
2023-04-14T13:37:44.301Z,1
2023-04-14T13:38:44.318Z,1
2023-04-14T13:39:44.287Z,1
2023-04-14T13:40:46.041Z,1
2023-04-14T13:41:44.297Z,1
2023-04-14T13:42:44.305Z,1
2023-04-14T13:43:44.283Z,1
2023-04-14T13:44:44.300Z,2
2023-04-14T13:45:44.312Z,2
2023-04-14T13:46:44.389Z,1
2023-04-14T13:47:44.332Z,1
2023-04-14T13:48:44.299Z,1
2023-04-14T13:49:44.318Z,1
2023-04-14T13:50:44.296Z,1
2023-04-14T13:51:44.296Z,1
2023-04-14T13:52:44.292Z,1
2023-04-14T13:53:44.302Z,1
2023-04-14T13:54:44.290Z,1
2023-04-14T13:55:44.291Z,1
2023-04-14T13:56:44.286Z,1
2023-04-14T13:57:44.316Z,1
2023-04-14T13:58:44.306Z,1
2023-04-14T13:59:44.297Z,1
2023-04-14T14:00:44.308Z,1
2023-04-14T14:01:44.421Z,1
2023-04-14T14:02:44.500Z,1
2023-04-14T14:03:44.492Z,1
2023-04-14T14:05:44.289Z,1
2023-04-14T14:06:44.317Z,1
2023-04-14T14:07:44.297Z,1
2023-04-14T14:08:44.294Z,1
2023-04-14T14:09:44.312Z,1
2023-04-14T14:10:44.298Z,1
2023-04-14T14:11:44.302Z,1
2023-04-14T14:12:44.328Z,1
2023-04-14T14:13:44.318Z,1
2023-04-14T14:14:44.306Z,1
2023-04-14T14:15:44.316Z,1
2023-04-14T14:16:44.340Z,1
2023-04-14T14:17:44.324Z,1
2023-04-14T14:18:44.308Z,1
2023-04-14T14:19:44.284Z,1
2023-04-14T14:20:44.325Z,1
2023-04-14T14:21:44.319Z,1
2023-04-14T14:22:44.299Z,1
2023-04-14T14:23:44.318Z,1
2023-04-14T14:24:44.298Z,1
2023-04-14T14:25:44.285Z,1
2023-04-14T14:26:44.304Z,1
2023-04-14T14:27:44.301Z,1
2023-04-14T14:28:44.283Z,1
2023-04-14T14:29:44.283Z,1
2023-04-14T14:30:44.288Z,1
2023-04-14T14:31:44.394Z,1
2023-04-14T14:32:44.332Z,1
2023-04-14T14:33:44.293Z,1
2023-04-14T14:34:44.291Z,1
2023-04-14T14:35:44.313Z,1
2023-04-14T14:36:44.330Z,1
2023-04-14T14:37:44.309Z,1
2023-04-14T14:38:44.298Z,1
2023-04-14T14:39:44.307Z,1
2023-04-14T14:40:44.334Z,1
2023-04-14T14:41:44.310Z,1
2023-04-14T14:42:44.301Z,1
2023-04-14T14:43:44.306Z,1
2023-04-14T14:44:44.300Z,1
2023-04-14T14:45:44.296Z,1
2023-04-14T14:46:44.323Z,1
2023-04-14T14:47:44.349Z,1
2023-04-14T14:48:44.338Z,1
2023-04-14T14:49:56.491Z,1
2023-04-14T14:50:44.329Z,1
2023-04-14T14:51:44.511Z,1
2023-04-14T14:52:44.270Z,1
2023-04-14T14:53:44.368Z,1
2023-04-14T14:54:44.256Z,1
2023-04-14T14:55:44.259Z,1
2023-04-14T14:56:44.263Z,1
2023-04-14T14:57:44.244Z,1
2023-04-14T14:58:44.269Z,1
2023-04-14T14:59:44.267Z,1
2023-04-14T15:01:44.364Z,1
2023-04-14T15:02:44.505Z,1
2023-04-14T15:03:44.515Z,1
2023-04-14T15:04:44.302Z,1
2023-04-14T15:05:44.271Z,1
2023-04-14T15:06:44.284Z,1
2023-04-14T15:07:44.279Z,1
2023-04-14T15:08:44.272Z,1
2023-04-14T15:09:44.270Z,1
2023-04-14T15:10:44.279Z,1
2023-04-14T15:11:44.273Z,1
2023-04-14T15:12:44.298Z,1
2023-04-14T15:13:44.305Z,1
2023-04-14T15:14:44.294Z,1
2023-04-14T15:15:44.297Z,1